Time;durP1;ratioP1;P1;durP2;ratioP2;P2;SDS_P1;SDS_P2;PMS_P1;PMS_P2;Temp;Humidity;BMP_temperature;BMP_pressure;BME280_temperature;BME280_humidity;BME280_pressure;Samples;Min_cycle;Max_cycle;Signal;HPM_P1;HPM_P2
2023/12/24 00:00:09;;;;;;;;;;;9.50;99.90;;;;;;4981201;28;19967;-70
2023/12/24 00:02:37;;;;;;;;;;;9.40;99.90;;;;;;4979259;28;20297;-70
2023/12/24 00:05:02;;;;;;;;;;;9.40;99.90;;;;;;4981277;28;19917;-69
2023/12/24 00:07:30;;;;;;;;;;;9.40;99.90;;;;;;4978639;28;19932;-69
2023/12/24 00:09:55;;;;;;;;;;;9.40;99.90;;;;;;4980044;28;19921;-69
2023/12/24 00:12:21;;;;;;;;;;;9.40;99.90;;;;;;4976831;28;19979;-70
2023/12/24 00:14:46;;;;;;;;;;;9.40;99.90;;;;;;4982167;28;19925;-70
2023/12/24 00:17:12;;;;;;;;;;;9.40;99.90;;;;;;4982577;28;19968;-69
2023/12/24 00:19:37;;;;;;;;;;;9.40;99.90;;;;;;4981849;28;20335;-75
2023/12/24 00:22:05;;;;;;;;;;;9.40;99.90;;;;;;4975525;28;20028;-69
2023/12/24 00:24:30;;;;;;;;;;;9.40;99.90;;;;;;4977770;28;19956;-69
2023/12/24 00:26:56;;;;;;;;;;;9.40;99.90;;;;;;4968885;28;19918;-69
2023/12/24 00:29:26;;;;;;;;;;;9.40;99.90;;;;;;4976737;28;19922;-69
2023/12/24 00:31:51;;;;;;;;;;;9.40;99.90;;;;;;4969916;28;20219;-69
2023/12/24 00:34:17;;;;;;;;;;;9.50;99.90;;;;;;4982580;28;20387;-69
2023/12/24 00:36:45;;;;;;;;;;;9.40;99.90;;;;;;4975529;28;19925;-69
2023/12/24 00:39:10;;;;;;;;;;;9.50;99.90;;;;;;4977964;28;20336;-69
2023/12/24 00:41:39;;;;;;;;;;;9.50;99.90;;;;;;4975218;28;19928;-69
2023/12/24 00:44:05;;;;;;;;;;;9.40;99.90;;;;;;4978781;28;20055;-69
2023/12/24 00:46:30;;;;;;;;;;;9.40;99.90;;;;;;5003385;22;19933;-69
2023/12/24 00:48:56;;;;;;;;;;;9.40;99.90;;;;;;5014403;28;19932;-69
2023/12/24 00:51:24;;;;;;;;;;;9.40;99.90;;;;;;5001684;28;19932;-69
2023/12/24 00:53:49;;;;;;;;;;;9.40;99.90;;;;;;5014902;28;19925;-69
2023/12/24 00:56:17;;;;;;;;;;;9.40;99.90;;;;;;5011923;28;19921;-69
2023/12/24 00:58:45;;;;;;;;;;;9.40;99.90;;;;;;5009199;28;19921;-69
2023/12/24 01:01:10;;;;;;;;;;;9.40;99.90;;;;;;5012835;28;19921;-69
2023/12/24 01:03:38;;;;;;;;;;;9.40;99.90;;;;;;5009662;28;19948;-69
2023/12/24 01:06:04;;;;;;;;;;;9.40;99.90;;;;;;5012179;28;20106;-69
2023/12/24 01:08:31;;;;;;;;;;;9.40;99.90;;;;;;5010349;28;19921;-69
2023/12/24 01:10:57;;;;;;;;;;;9.40;99.90;;;;;;5012317;28;19929;-69
2023/12/24 01:13:25;;;;;;;;;;;9.40;99.90;;;;;;5009294;28;20022;-69
2023/12/24 01:15:50;;;;;;;;;;;9.40;99.90;;;;;;5011707;28;20415;-69
2023/12/24 01:18:16;;;;;;;;;;;9.40;99.90;;;;;;5010650;28;19966;-69
2023/12/24 01:20:41;;;;;;;;;;;9.40;99.90;;;;;;5012986;28;19974;-69
2023/12/24 01:23:09;;;;;;;;;;;9.40;99.90;;;;;;5009323;28;19978;-69
2023/12/24 01:25:35;;;;;;;;;;;9.40;99.90;;;;;;5010660;28;20379;-69
2023/12/24 01:28:00;;;;;;;;;;;9.40;99.90;;;;;;5008663;28;20151;-69
2023/12/24 01:30:31;;;;;;;;;;;9.40;99.90;;;;;;5010404;28;20011;-69
2023/12/24 01:32:56;;;;;;;;;;;9.40;99.90;;;;;;5009858;28;19917;-69
2023/12/24 01:35:22;;;;;;;;;;;9.40;99.90;;;;;;5010477;28;20382;-69
2023/12/24 01:37:49;;;;;;;;;;;9.40;99.90;;;;;;5011408;28;19920;-69
2023/12/24 01:40:15;;;;;;;;;;;9.40;99.90;;;;;;5010415;28;20272;-69
2023/12/24 01:42:42;;;;;;;;;;;9.40;99.90;;;;;;5010769;28;20349;-69
2023/12/24 01:45:07;;;;;;;;;;;9.30;99.90;;;;;;5008191;28;19920;-69
2023/12/24 01:47:33;;;;;;;;;;;9.40;99.90;;;;;;5012885;28;20342;-69
2023/12/24 01:49:58;;;;;;;;;;;9.30;99.90;;;;;;5011529;28;20454;-69
2023/12/24 01:52:24;;;;;;;;;;;9.30;99.90;;;;;;5011651;28;20027;-69
2023/12/24 01:54:50;;;;;;;;;;;9.30;99.90;;;;;;5008507;28;19924;-69
2023/12/24 01:57:18;;;;;;;;;;;9.30;99.90;;;;;;5011328;28;19921;-69
2023/12/24 01:59:43;;;;;;;;;;;9.30;99.90;;;;;;5009503;28;21730;-69
2023/12/24 02:02:09;;;;;;;;;;;9.30;99.90;;;;;;4996210;28;19921;-69
2023/12/24 02:04:39;;;;;;;;;;;9.30;99.90;;;;;;5011226;28;20450;-70
2023/12/24 02:07:05;;;;;;;;;;;9.30;99.90;;;;;;5010053;28;20008;-69
2023/12/24 02:09:31;;;;;;;;;;;9.40;99.90;;;;;;5007374;28;19982;-69
2023/12/24 02:11:56;;;;;;;;;;;9.30;99.90;;;;;;5011768;28;19925;-69
2023/12/24 02:14:22;;;;;;;;;;;9.30;99.90;;;;;;5009695;28;20382;-69
2023/12/24 02:16:48;;;;;;;;;;;9.30;99.90;;;;;;5010027;28;20031;-69
2023/12/24 02:19:16;;;;;;;;;;;9.40;99.90;;;;;;5007769;28;20395;-69
2023/12/24 02:21:44;;;;;;;;;;;9.30;99.90;;;;;;5011293;28;19960;-69
2023/12/24 02:24:12;;;;;;;;;;;9.30;99.90;;;;;;5006400;28;19924;-69
2023/12/24 02:26:41;;;;;;;;;;;9.30;99.90;;;;;;5009516;28;21128;-69
2023/12/24 02:29:18;;;;;;;;;;;9.30;99.90;;;;;;5009603;28;20404;-69
2023/12/24 02:31:45;;;;;;;;;;;9.30;99.90;;;;;;5010638;28;19913;-69
2023/12/24 02:34:15;;;;;;;;;;;9.30;99.90;;;;;;5008851;28;19921;-69
2023/12/24 02:36:42;;;;;;;;;;;9.30;99.90;;;;;;5009416;28;19921;-69
2023/12/24 02:39:13;;;;;;;;;;;9.30;99.90;;;;;;5009486;28;20159;-69
2023/12/24 02:41:38;;;;;;;;;;;9.40;99.90;;;;;;5015053;28;19967;-69
2023/12/24 02:44:04;;;;;;;;;;;9.30;99.90;;;;;;5011887;28;19928;-69
2023/12/24 02:46:29;;;;;;;;;;;9.40;99.90;;;;;;5013137;28;19927;-69
2023/12/24 02:48:55;;;;;;;;;;;9.40;99.90;;;;;;5013672;28;19926;-69
2023/12/24 02:51:20;;;;;;;;;;;9.40;99.90;;;;;;5013359;28;19921;-69
2023/12/24 02:53:46;;;;;;;;;;;9.40;99.90;;;;;;5011579;28;21047;-69
2023/12/24 02:56:14;;;;;;;;;;;9.40;99.90;;;;;;5012351;28;20028;-69
2023/12/24 02:58:40;;;;;;;;;;;9.40;99.90;;;;;;5012759;28;19920;-69
2023/12/24 03:01:05;;;;;;;;;;;9.40;99.90;;;;;;5012928;28;19921;-69
2023/12/24 03:03:31;;;;;;;;;;;9.40;99.90;;;;;;5016418;28;19921;-70
2023/12/24 03:05:59;;;;;;;;;;;9.40;99.90;;;;;;4999193;28;20041;-69
2023/12/24 03:08:24;;;;;;;;;;;9.40;99.90;;;;;;5012182;28;19974;-70
2023/12/24 03:10:52;;;;;;;;;;;9.40;99.90;;;;;;4997206;28;19913;-69
2023/12/24 03:13:20;;;;;;;;;;;9.40;99.90;;;;;;5011041;28;20545;-69
2023/12/24 03:15:46;;;;;;;;;;;9.40;99.90;;;;;;5012590;28;19921;-69
2023/12/24 03:18:11;;;;;;;;;;;9.40;99.90;;;;;;5010968;28;20424;-69
2023/12/24 03:20:37;;;;;;;;;;;9.40;99.90;;;;;;5014530;28;19995;-69
2023/12/24 03:23:03;;;;;;;;;;;9.40;99.90;;;;;;5012548;28;19921;-69
2023/12/24 03:25:28;;;;;;;;;;;9.40;99.90;;;;;;5013139;28;20022;-69
2023/12/24 03:27:56;;;;;;;;;;;9.40;99.90;;;;;;5011963;28;20024;-69
2023/12/24 03:30:22;;;;;;;;;;;9.50;99.90;;;;;;5013256;28;19963;-69
2023/12/24 03:32:47;;;;;;;;;;;9.50;99.90;;;;;;5001936;28;19921;-69
2023/12/24 03:35:15;;;;;;;;;;;9.50;99.90;;;;;;5016312;28;19924;-69
2023/12/24 03:37:43;;;;;;;;;;;9.40;99.90;;;;;;5016821;28;19933;-69
2023/12/24 03:40:08;;;;;;;;;;;9.50;99.90;;;;;;5015559;28;19959;-69
2023/12/24 03:42:34;;;;;;;;;;;9.50;99.90;;;;;;5016743;28;20011;-69
2023/12/24 03:45:02;;;;;;;;;;;9.50;99.90;;;;;;5014891;28;19921;-69
2023/12/24 03:47:28;;;;;;;;;;;9.40;99.90;;;;;;5016377;28;19932;-69
2023/12/24 03:49:53;;;;;;;;;;;9.50;99.90;;;;;;5015165;28;19921;-69
2023/12/24 03:52:21;;;;;;;;;;;9.50;99.90;;;;;;5015437;28;19921;-69
2023/12/24 03:54:46;;;;;;;;;;;9.50;99.90;;;;;;5014902;28;19917;-69
2023/12/24 03:57:14;;;;;;;;;;;9.40;99.90;;;;;;5015719;28;19975;-69
2023/12/24 03:59:42;;;;;;;;;;;9.40;99.90;;;;;;5015946;28;19964;-69
2023/12/24 04:02:11;;;;;;;;;;;9.50;99.90;;;;;;5015911;28;20269;-69
2023/12/24 04:04:36;;;;;;;;;;;9.40;99.90;;;;;;5001041;28;19943;-69
2023/12/24 04:07:02;;;;;;;;;;;9.40;99.90;;;;;;5014488;28;20363;-70
2023/12/24 04:09:29;;;;;;;;;;;9.50;99.90;;;;;;5016494;28;20561;-69
2023/12/24 04:11:57;;;;;;;;;;;9.50;99.90;;;;;;5015718;28;19925;-69
2023/12/24 04:14:22;;;;;;;;;;;9.50;99.90;;;;;;5014197;28;20322;-69
2023/12/24 04:16:48;;;;;;;;;;;9.50;99.90;;;;;;5014689;28;19917;-69
2023/12/24 04:19:13;;;;;;;;;;;9.50;99.90;;;;;;5014694;28;19966;-69
2023/12/24 04:21:41;;;;;;;;;;;9.40;99.90;;;;;;5016598;28;19928;-69
2023/12/24 04:24:07;;;;;;;;;;;9.50;99.90;;;;;;5014102;28;19921;-70
2023/12/24 04:26:35;;;;;;;;;;;9.50;99.90;;;;;;5015460;28;19921;-69
2023/12/24 04:31:28;;;;;;;;;;;9.50;99.90;;;;;;4997764;28;19929;-72
2023/12/24 04:33:53;;;;;;;;;;;9.50;99.90;;;;;;4997313;28;19979;-72
2023/12/24 04:36:22;;;;;;;;;;;9.50;99.90;;;;;;4995843;28;19922;-72
2023/12/24 04:38:47;;;;;;;;;;;9.50;99.90;;;;;;4994012;28;19916;-72
2023/12/24 04:41:21;;;;;;;;;;;9.50;99.90;;;;;;4996688;28;20257;-72
2023/12/24 04:43:47;;;;;;;;;;;9.50;99.90;;;;;;4994957;28;20679;-72
2023/12/24 04:46:12;;;;;;;;;;;9.50;99.90;;;;;;4995576;28;20199;-72
2023/12/24 04:48:38;;;;;;;;;;;9.60;99.90;;;;;;4996175;28;20356;-72
2023/12/24 04:51:03;;;;;;;;;;;9.50;99.90;;;;;;4996336;28;19925;-72
2023/12/24 04:53:29;;;;;;;;;;;9.60;99.90;;;;;;4994015;28;20594;-72
2023/12/24 04:55:54;;;;;;;;;;;9.60;99.90;;;;;;4996420;28;20829;-72
2023/12/24 04:58:20;;;;;;;;;;;9.60;99.90;;;;;;4995335;28;19921;-72
2023/12/24 05:00:45;;;;;;;;;;;9.60;99.90;;;;;;4995749;28;19967;-72
2023/12/24 05:03:11;;;;;;;;;;;9.60;99.90;;;;;;4993812;28;19964;-72
2023/12/24 05:05:39;;;;;;;;;;;9.60;99.90;;;;;;4997008;28;19921;-72
2023/12/24 05:08:06;;;;;;;;;;;9.60;99.90;;;;;;4994425;28;19927;-72
2023/12/24 05:10:32;;;;;;;;;;;9.60;99.90;;;;;;4995737;28;20129;-72
2023/12/24 05:12:59;;;;;;;;;;;9.60;99.90;;;;;;4995994;28;19964;-72
2023/12/24 05:15:26;;;;;;;;;;;9.60;99.90;;;;;;4979542;28;20311;-72
2023/12/24 05:17:51;;;;;;;;;;;9.60;99.90;;;;;;4993766;28;20409;-72
2023/12/24 05:20:17;;;;;;;;;;;9.60;99.90;;;;;;4994899;28;19921;-72
2023/12/24 05:22:42;;;;;;;;;;;9.60;99.90;;;;;;4994291;28;20313;-72
2023/12/24 05:25:10;;;;;;;;;;;9.60;99.90;;;;;;4993987;28;19928;-72
2023/12/24 05:27:36;;;;;;;;;;;9.60;99.90;;;;;;4995799;28;19967;-72
2023/12/24 05:30:04;;;;;;;;;;;9.60;99.90;;;;;;4994130;28;19928;-72
2023/12/24 05:32:29;;;;;;;;;;;9.60;99.90;;;;;;4995004;28;20457;-72
2023/12/24 05:34:54;;;;;;;;;;;9.70;99.90;;;;;;4994101;28;19925;-72
2023/12/24 05:37:20;;;;;;;;;;;9.60;99.90;;;;;;5000005;28;19924;-72
2023/12/24 05:39:45;;;;;;;;;;;9.70;99.90;;;;;;4992093;28;20219;-72
2023/12/24 05:42:13;;;;;;;;;;;9.70;99.90;;;;;;4995532;28;21010;-72
2023/12/24 05:44:39;;;;;;;;;;;9.70;99.90;;;;;;4993584;28;19917;-72
2023/12/24 05:47:04;;;;;;;;;;;9.70;99.90;;;;;;4996829;28;19964;-72
2023/12/24 05:49:30;;;;;;;;;;;9.70;99.90;;;;;;4996194;28;20394;-72
2023/12/24 05:51:55;;;;;;;;;;;9.70;99.90;;;;;;4997214;28;19929;-71
2023/12/24 05:54:21;;;;;;;;;;;9.70;99.90;;;;;;4991582;28;19924;-73
2023/12/24 05:56:49;;;;;;;;;;;9.70;99.90;;;;;;4994243;28;20023;-72
2023/12/24 05:59:14;;;;;;;;;;;9.70;99.90;;;;;;4993239;28;20393;-72
2023/12/24 06:01:41;;;;;;;;;;;9.70;99.90;;;;;;4996127;28;19921;-73
2023/12/24 06:04:07;;;;;;;;;;;9.70;99.90;;;;;;4992660;28;19928;-72
2023/12/24 06:06:32;;;;;;;;;;;9.80;99.90;;;;;;4993100;28;19929;-72
2023/12/24 06:08:58;;;;;;;;;;;9.80;99.90;;;;;;4993592;28;19929;-72
2023/12/24 06:11:23;;;;;;;;;;;9.80;99.90;;;;;;4994109;28;19921;-72
2023/12/24 06:13:49;;;;;;;;;;;9.80;99.90;;;;;;4978264;28;19971;-72
2023/12/24 06:16:14;;;;;;;;;;;9.80;99.90;;;;;;4994406;28;19925;-72
2023/12/24 06:18:40;;;;;;;;;;;9.80;99.90;;;;;;4992393;28;19921;-72
2023/12/24 06:21:06;;;;;;;;;;;9.80;99.90;;;;;;4995972;28;20371;-72
2023/12/24 06:23:34;;;;;;;;;;;9.80;99.90;;;;;;4991912;28;19967;-72
2023/12/24 06:26:00;;;;;;;;;;;9.80;99.90;;;;;;4993280;28;20486;-72
2023/12/24 06:28:25;;;;;;;;;;;9.80;99.90;;;;;;4992408;28;20016;-72
2023/12/24 06:30:51;;;;;;;;;;;9.80;99.90;;;;;;4995102;28;19990;-72
2023/12/24 06:33:16;;;;;;;;;;;9.90;99.90;;;;;;5001027;28;19944;-72
2023/12/24 06:35:42;;;;;;;;;;;9.80;99.90;;;;;;5020117;28;20015;-72
2023/12/24 06:38:07;;;;;;;;;;;9.90;99.90;;;;;;5021597;28;20249;-72
2023/12/24 06:40:36;;;;;;;;;;;9.80;99.90;;;;;;5020808;28;20193;-72
2023/12/24 06:43:02;;;;;;;;;;;9.90;99.90;;;;;;5015176;28;20252;-72
2023/12/24 06:45:27;;;;;;;;;;;9.90;99.90;;;;;;5022425;28;19944;-72
2023/12/24 06:47:52;;;;;;;;;;;9.90;99.90;;;;;;5012557;23;19933;-72
2023/12/24 06:50:22;;;;;;;;;;;9.90;99.90;;;;;;5003377;28;19968;-72
2023/12/24 06:52:49;;;;;;;;;;;9.90;99.90;;;;;;5006094;28;19979;-72
2023/12/24 06:55:17;;;;;;;;;;;9.90;99.90;;;;;;5010724;28;19928;-72
2023/12/24 06:57:45;;;;;;;;;;;9.90;99.90;;;;;;5007162;28;19917;-72
2023/12/24 07:00:11;;;;;;;;;;;9.90;99.90;;;;;;5006170;28;20431;-72
2023/12/24 07:02:36;;;;;;;;;;;9.90;99.90;;;;;;5005142;28;20006;-73
2023/12/24 07:05:02;;;;;;;;;;;10.00;99.90;;;;;;5007099;28;19960;-73
2023/12/24 07:07:27;;;;;;;;;;;9.90;99.90;;;;;;5005282;28;20438;-73
2023/12/24 07:09:53;;;;;;;;;;;10.00;99.90;;;;;;5004304;28;19921;-73
2023/12/24 07:12:18;;;;;;;;;;;10.00;99.90;;;;;;5003738;28;19918;-73
2023/12/24 07:14:44;;;;;;;;;;;10.00;99.90;;;;;;5001982;28;20276;-73
2023/12/24 07:17:11;;;;;;;;;;;10.00;99.90;;;;;;5004254;28;20396;-73
2023/12/24 07:19:36;;;;;;;;;;;10.00;99.90;;;;;;5010740;28;20017;-73
2023/12/24 07:22:02;;;;;;;;;;;10.00;99.90;;;;;;5004494;28;20419;-73
2023/12/24 07:24:27;;;;;;;;;;;10.10;99.90;;;;;;5011846;28;20196;-73
2023/12/24 07:26:55;;;;;;;;;;;10.10;99.90;;;;;;5006160;28;20362;-73
2023/12/24 07:29:21;;;;;;;;;;;10.00;99.90;;;;;;5014612;28;19917;-73
2023/12/24 07:31:49;;;;;;;;;;;10.10;99.90;;;;;;5006641;28;19971;-73
2023/12/24 07:34:14;;;;;;;;;;;10.10;99.90;;;;;;5005307;28;19921;-73
2023/12/24 07:36:40;;;;;;;;;;;10.10;99.90;;;;;;5012238;28;19971;-73
2023/12/24 07:39:05;;;;;;;;;;;10.20;99.90;;;;;;5010973;28;19917;-73
2023/12/24 07:41:31;;;;;;;;;;;10.20;99.90;;;;;;5002380;28;20398;-73
2023/12/24 07:43:57;;;;;;;;;;;10.20;99.90;;;;;;5005537;28;19971;-72
2023/12/24 07:47:42;;;;;;;;;;;10.20;99.90;;;;;;5097149;27;19925;-73
2023/12/24 07:50:08;;;;;;;;;;;10.20;99.90;;;;;;5079152;28;19938;-71
2023/12/24 07:52:33;;;;;;;;;;;10.20;99.90;;;;;;5080988;28;19924;-74
2023/12/24 07:54:59;;;;;;;;;;;10.30;99.90;;;;;;5084620;28;20024;-73
2023/12/24 07:57:24;;;;;;;;;;;10.30;99.90;;;;;;5082472;28;20321;-73
2023/12/24 07:59:50;;;;;;;;;;;10.30;99.90;;;;;;5080002;28;19916;-73
2023/12/24 08:02:15;;;;;;;;;;;10.30;99.90;;;;;;5081037;28;19973;-73
2023/12/24 08:04:43;;;;;;;;;;;10.40;99.90;;;;;;5080052;28;19925;-73
2023/12/24 08:07:09;;;;;;;;;;;10.40;99.90;;;;;;5080864;28;19920;-74
2023/12/24 08:09:34;;;;;;;;;;;10.40;99.90;;;;;;5080514;28;19974;-72
2023/12/24 08:12:00;;;;;;;;;;;10.50;99.90;;;;;;5082702;28;20333;-73
2023/12/24 08:14:25;;;;;;;;;;;10.50;99.90;;;;;;5079421;28;19916;-74
2023/12/24 08:16:51;;;;;;;;;;;10.50;99.90;;;;;;5081912;28;20325;-73
2023/12/24 08:19:16;;;;;;;;;;;10.60;99.90;;;;;;5085262;28;20003;-72
2023/12/24 08:21:41;;;;;;;;;;;10.60;99.90;;;;;;5081655;28;20382;-71
2023/12/24 08:24:08;;;;;;;;;;;10.60;99.90;;;;;;5078211;28;20014;-71
2023/12/24 08:26:36;;;;;;;;;;;10.60;99.90;;;;;;5079283;28;19970;-69
2023/12/24 08:29:04;;;;;;;;;;;10.60;99.90;;;;;;5079043;28;19912;-72
2023/12/24 08:31:30;;;;;;;;;;;10.60;99.90;;;;;;5089004;28;19917;-71
2023/12/24 08:33:55;;;;;;;;;;;10.70;99.90;;;;;;5081050;28;20003;-70
2023/12/24 08:36:21;;;;;;;;;;;10.70;99.90;;;;;;5076013;28;19916;-70
2023/12/24 08:38:46;;;;;;;;;;;10.80;99.90;;;;;;5075148;28;20042;-70
2023/12/24 08:41:12;;;;;;;;;;;10.80;99.90;;;;;;5079009;28;19962;-70
2023/12/24 08:43:37;;;;;;;;;;;10.80;99.90;;;;;;5080124;28;19917;-69
2023/12/24 08:46:03;;;;;;;;;;;10.90;99.90;;;;;;5073586;28;20453;-69
2023/12/24 08:48:29;;;;;;;;;;;10.80;99.90;;;;;;5082638;28;19920;-74
2023/12/24 08:50:56;;;;;;;;;;;10.80;99.90;;;;;;5058448;28;19920;-73
2023/12/24 08:53:22;;;;;;;;;;;10.80;99.90;;;;;;5081798;28;19993;-72
2023/12/24 08:55:47;;;;;;;;;;;10.90;99.90;;;;;;5082852;28;19923;-74
2023/12/24 08:58:13;;;;;;;;;;;10.90;99.90;;;;;;5073122;28;20708;-73
2023/12/24 09:00:38;;;;;;;;;;;10.90;99.90;;;;;;5069166;28;20533;-73
2023/12/24 09:03:03;;;;;;;;;;;10.90;99.90;;;;;;5065561;28;19920;-75
2023/12/24 09:05:29;;;;;;;;;;;10.90;99.90;;;;;;5070753;28;19996;-73
2023/12/24 09:07:54;;;;;;;;;;;10.90;99.90;;;;;;5055681;28;19920;-74
2023/12/24 09:10:22;;;;;;;;;;;10.90;99.90;;;;;;5070395;28;19920;-75
2023/12/24 09:12:48;;;;;;;;;;;10.90;99.90;;;;;;5071301;28;20692;-75
2023/12/24 09:15:13;;;;;;;;;;;11.00;99.90;;;;;;5071209;28;19920;-76
2023/12/24 09:17:40;;;;;;;;;;;10.90;99.90;;;;;;5070557;28;19974;-75
2023/12/24 09:20:07;;;;;;;;;;;11.00;99.90;;;;;;5070366;28;19926;-75
2023/12/24 09:22:32;;;;;;;;;;;11.00;99.90;;;;;;5071698;28;19916;-74
2023/12/24 09:24:58;;;;;;;;;;;11.00;99.90;;;;;;5056761;28;20371;-75
2023/12/24 09:27:23;;;;;;;;;;;11.00;99.90;;;;;;5070066;28;19934;-76
2023/12/24 09:29:49;;;;;;;;;;;11.00;99.90;;;;;;5068166;28;21015;-76
2023/12/24 09:32:14;;;;;;;;;;;11.00;99.90;;;;;;5074463;28;19927;-76
2023/12/24 09:34:40;;;;;;;;;;;11.00;99.90;;;;;;5075175;28;20359;-75
2023/12/24 09:37:05;;;;;;;;;;;11.10;99.90;;;;;;5056942;28;19927;-75
2023/12/24 09:39:33;;;;;;;;;;;11.10;99.90;;;;;;5071535;28;19920;-76
2023/12/24 09:41:58;;;;;;;;;;;11.20;99.90;;;;;;5053574;28;20004;-75
2023/12/24 09:44:26;;;;;;;;;;;11.10;99.90;;;;;;5069558;28;20473;-75
2023/12/24 09:46:51;;;;;;;;;;;11.10;99.90;;;;;;5071977;28;19920;-75
2023/12/24 09:49:17;;;;;;;;;;;11.10;99.90;;;;;;5072925;28;19958;-76
2023/12/24 09:51:42;;;;;;;;;;;11.20;99.90;;;;;;5071764;28;19927;-74
2023/12/24 09:54:08;;;;;;;;;;;11.20;99.90;;;;;;5070116;28;20028;-71
2023/12/24 09:56:34;;;;;;;;;;;11.30;99.90;;;;;;5071760;28;19920;-77
2023/12/24 09:59:03;;;;;;;;;;;11.20;99.90;;;;;;5070551;28;20285;-76
2023/12/24 10:01:28;;;;;;;;;;;11.20;99.90;;;;;;5070764;28;19920;-78
2023/12/24 10:03:53;;;;;;;;;;;11.20;99.90;;;;;;5070112;28;20432;-75
2023/12/24 10:06:19;;;;;;;;;;;11.20;99.90;;;;;;5055463;28;19924;-74
2023/12/24 10:08:48;;;;;;;;;;;11.20;99.90;;;;;;5066476;28;20305;-76
2023/12/24 10:11:20;;;;;;;;;;;11.20;99.90;;;;;;5069746;28;19920;-74
2023/12/24 10:13:47;;;;;;;;;;;11.20;99.90;;;;;;5069728;28;19951;-75
2023/12/24 10:16:12;;;;;;;;;;;11.30;99.90;;;;;;5072551;28;20723;-74
2023/12/24 10:18:46;;;;;;;;;;;11.30;99.90;;;;;;5068365;28;19970;-77
2023/12/24 10:21:12;;;;;;;;;;;11.30;99.90;;;;;;5070977;28;20320;-76
2023/12/24 10:23:37;;;;;;;;;;;11.30;99.90;;;;;;5070746;28;19912;-77
2023/12/24 10:26:04;;;;;;;;;;;11.40;99.90;;;;;;5071629;28;19935;-76
2023/12/24 10:28:29;;;;;;;;;;;11.30;99.90;;;;;;5071198;28;20014;-77
2023/12/24 10:31:04;;;;;;;;;;;11.30;99.90;;;;;;5071433;28;19930;-77
2023/12/24 10:33:32;;;;;;;;;;;11.30;99.90;;;;;;5055760;28;19970;-78
2023/12/24 10:35:58;;;;;;;;;;;11.40;99.90;;;;;;5058482;28;19912;-77
2023/12/24 10:38:28;;;;;;;;;;;11.40;99.90;;;;;;5068213;28;19927;-76
2023/12/24 10:40:54;;;;;;;;;;;11.50;99.90;;;;;;5069837;28;20736;-76
2023/12/24 10:43:19;;;;;;;;;;;11.40;99.90;;;;;;5070287;28;20061;-77
2023/12/24 10:45:47;;;;;;;;;;;11.40;99.90;;;;;;5074465;28;20374;-77
2023/12/24 10:48:12;;;;;;;;;;;11.40;99.90;;;;;;5066751;28;20649;-75
2023/12/24 10:50:38;;;;;;;;;;;11.40;99.90;;;;;;5069923;28;19920;-75
2023/12/24 10:53:03;;;;;;;;;;;11.50;99.90;;;;;;5067746;28;19920;-75
2023/12/24 10:55:34;;;;;;;;;;;11.50;99.90;;;;;;5071967;28;20451;-75
2023/12/24 10:58:02;;;;;;;;;;;11.40;99.90;;;;;;5068736;28;19916;-76
2023/12/24 11:00:27;;;;;;;;;;;11.50;99.90;;;;;;5052883;28;19912;-76
2023/12/24 11:02:55;;;;;;;;;;;11.60;99.90;;;;;;5068576;28;19926;-76
2023/12/24 11:05:39;;;;;;;;;;;11.50;99.90;;;;;;5069224;28;20016;-76
2023/12/24 11:08:05;;;;;;;;;;;11.50;99.90;;;;;;5069759;28;19920;-76
2023/12/24 11:10:40;;;;;;;;;;;11.50;99.90;;;;;;5071274;28;20443;-75
2023/12/24 11:13:06;;;;;;;;;;;11.60;99.90;;;;;;5068477;28;20386;-76
2023/12/24 11:15:39;;;;;;;;;;;11.60;99.90;;;;;;5072110;28;19928;-76
2023/12/24 11:18:08;;;;;;;;;;;11.60;99.90;;;;;;5069727;28;19920;-76
2023/12/24 11:20:40;;;;;;;;;;;11.60;99.90;;;;;;5068867;28;19921;-76
2023/12/24 11:23:06;;;;;;;;;;;11.60;99.90;;;;;;5070814;28;19920;-76
2023/12/24 11:25:41;;;;;;;;;;;11.60;99.90;;;;;;5069788;28;20571;-76
2023/12/24 11:28:32;;;;;;;;;;;11.60;99.90;;;;;;5065258;28;19920;-76
2023/12/24 11:30:58;;;;;;;;;;;11.70;99.90;;;;;;5069941;28;19924;-77
2023/12/24 11:33:29;;;;;;;;;;;11.70;99.90;;;;;;5069870;28;20200;-77
2023/12/24 11:35:54;;;;;;;;;;;11.70;99.90;;;;;;5069675;28;19931;-76
2023/12/24 11:38:35;;;;;;;;;;;11.70;99.90;;;;;;5069406;28;20738;-76
2023/12/24 11:41:07;;;;;;;;;;;11.70;99.90;;;;;;5070296;28;20498;-77
2023/12/24 11:43:36;;;;;;;;;;;11.70;99.90;;;;;;5065191;28;20328;-77
2023/12/24 11:46:03;;;;;;;;;;;11.70;99.90;;;;;;5069977;28;19924;-76
2023/12/24 11:48:30;;;;;;;;;;;11.70;99.90;;;;;;5068602;28;19920;-76
2023/12/24 11:51:09;;;;;;;;;;;11.70;99.90;;;;;;5051508;28;20500;-76
2023/12/24 11:53:35;;;;;;;;;;;11.70;99.90;;;;;;5068476;28;19928;-76
2023/12/24 11:56:13;;;;;;;;;;;11.70;99.90;;;;;;5069282;28;23542;-76
2023/12/24 11:58:39;;;;;;;;;;;11.70;99.90;;;;;;5067510;28;20035;-76
2023/12/24 12:01:05;;;;;;;;;;;11.70;99.90;;;;;;5070097;28;22322;-77
2023/12/24 12:03:33;;;;;;;;;;;11.70;99.90;;;;;;5069265;28;20385;-76
2023/12/24 12:06:00;;;;;;;;;;;11.80;99.90;;;;;;5069111;28;20585;-76
2023/12/24 12:08:27;;;;;;;;;;;11.80;99.90;;;;;;5068327;28;19923;-76
2023/12/24 12:10:52;;;;;;;;;;;11.70;99.90;;;;;;5068932;28;19920;-76
2023/12/24 12:13:18;;;;;;;;;;;11.80;99.90;;;;;;5066037;28;20720;-76
2023/12/24 12:15:43;;;;;;;;;;;11.80;99.90;;;;;;5068904;28;19928;-77
2023/12/24 12:18:09;;;;;;;;;;;11.80;99.90;;;;;;5068010;28;19928;-76
2023/12/24 12:20:37;;;;;;;;;;;11.80;99.90;;;;;;5064683;28;20395;-76
2023/12/24 12:23:05;;;;;;;;;;;11.90;99.90;;;;;;5067031;28;19920;-76
2023/12/24 12:25:30;;;;;;;;;;;11.80;99.90;;;;;;5070001;28;20010;-76
2023/12/24 12:28:01;;;;;;;;;;;11.80;99.90;;;;;;5052128;28;19942;-76
2023/12/24 12:30:26;;;;;;;;;;;11.80;99.90;;;;;;5066828;28;20103;-77
2023/12/24 12:32:52;;;;;;;;;;;11.80;99.90;;;;;;5066003;28;19916;-77
2023/12/24 12:35:17;;;;;;;;;;;11.80;99.90;;;;;;5074132;28;19927;-77
2023/12/24 12:37:43;;;;;;;;;;;11.80;99.90;;;;;;5090117;28;19912;-77
2023/12/24 12:40:09;;;;;;;;;;;11.80;99.90;;;;;;5090323;28;20578;-76
2023/12/24 12:42:35;;;;;;;;;;;11.80;99.90;;;;;;5073045;28;20383;-77
2023/12/24 12:45:00;;;;;;;;;;;11.80;99.90;;;;;;5088226;28;19961;-76
2023/12/24 12:47:26;;;;;;;;;;;11.80;99.90;;;;;;5092457;22;19935;-76
2023/12/24 12:49:52;;;;;;;;;;;11.80;99.90;;;;;;5104403;28;19980;-76
2023/12/24 12:52:17;;;;;;;;;;;11.80;99.90;;;;;;5088876;28;19969;-76
2023/12/24 12:54:43;;;;;;;;;;;11.90;99.90;;;;;;5090067;28;19927;-76
2023/12/24 12:57:08;;;;;;;;;;;11.90;99.90;;;;;;5090323;28;19920;-75
2023/12/24 12:59:34;;;;;;;;;;;11.90;99.90;;;;;;5091284;28;19912;-76
2023/12/24 13:02:02;;;;;;;;;;;11.90;99.90;;;;;;5090766;28;19918;-76
2023/12/24 13:04:36;;;;;;;;;;;11.90;99.90;;;;;;5090388;28;19916;-76
2023/12/24 13:07:03;;;;;;;;;;;11.90;99.90;;;;;;5085880;28;19971;-76
2023/12/24 13:09:33;;;;;;;;;;;11.80;99.90;;;;;;5093347;28;19973;-76
2023/12/24 13:12:03;;;;;;;;;;;11.90;99.90;;;;;;5091441;28;19951;-77
2023/12/24 13:14:28;;;;;;;;;;;11.90;99.90;;;;;;5087904;28;20034;-76
2023/12/24 13:17:09;;;;;;;;;;;11.90;99.90;;;;;;5089806;28;19916;-76
2023/12/24 13:19:35;;;;;;;;;;;11.90;99.90;;;;;;5089382;28;19920;-77
2023/12/24 13:22:02;;;;;;;;;;;11.90;99.90;;;;;;5090719;28;20647;-76
2023/12/24 13:24:28;;;;;;;;;;;11.90;99.90;;;;;;5089749;28;19958;-76
2023/12/24 13:26:54;;;;;;;;;;;11.90;99.90;;;;;;5092103;28;20401;-77
2023/12/24 13:29:20;;;;;;;;;;;12.00;99.90;;;;;;5105115;27;20109;-77
2023/12/24 13:31:45;;;;;;;;;;;12.00;99.90;;;;;;5092794;28;19951;-77
2023/12/24 13:34:12;;;;;;;;;;;12.00;99.90;;;;;;5091155;28;19920;-77
2023/12/24 13:36:38;;;;;;;;;;;12.00;99.90;;;;;;5086944;28;19913;-77
2023/12/24 13:39:04;;;;;;;;;;;12.00;99.90;;;;;;5090011;28;20007;-77
2023/12/24 13:41:29;;;;;;;;;;;12.00;99.90;;;;;;5088459;28;19947;-77
2023/12/24 13:43:54;;;;;;;;;;;12.10;99.90;;;;;;5089784;28;20510;-77
2023/12/24 13:46:20;;;;;;;;;;;12.10;99.90;;;;;;5089972;28;19954;-76
2023/12/24 13:48:46;;;;;;;;;;;12.10;99.90;;;;;;5090918;28;20330;-76
2023/12/24 13:51:12;;;;;;;;;;;12.10;99.90;;;;;;5089250;28;19941;-77
2023/12/24 13:53:40;;;;;;;;;;;12.10;99.90;;;;;;5088981;28;19916;-76
2023/12/24 13:56:06;;;;;;;;;;;12.10;99.90;;;;;;5089020;28;19920;-76
2023/12/24 13:58:32;;;;;;;;;;;12.10;99.90;;;;;;5087281;28;19916;-76
2023/12/24 14:01:02;;;;;;;;;;;12.10;99.90;;;;;;5089395;28;19951;-76
2023/12/24 14:03:28;;;;;;;;;;;12.10;99.90;;;;;;5087302;28;19916;-77
2023/12/24 14:05:56;;;;;;;;;;;12.10;99.90;;;;;;5104348;27;19923;-75
2023/12/24 14:08:22;;;;;;;;;;;12.10;99.90;;;;;;5080995;28;19977;-76
2023/12/24 14:10:47;;;;;;;;;;;12.20;99.90;;;;;;5089515;28;19954;-76
2023/12/24 14:13:13;;;;;;;;;;;12.20;99.90;;;;;;5088994;28;19912;-76
2023/12/24 14:15:38;;;;;;;;;;;12.20;99.90;;;;;;5088283;28;20407;-76
2023/12/24 14:18:04;;;;;;;;;;;12.20;99.90;;;;;;5089489;28;19965;-76
2023/12/24 14:20:32;;;;;;;;;;;12.20;99.90;;;;;;5102502;28;19919;-76
2023/12/24 14:22:57;;;;;;;;;;;12.20;99.90;;;;;;5089269;28;20018;-76